sensor_id;sensor_type;location;lat;lon;timestamp;temperature;humidity
21823;DHT22;11074;48.596;9.238;2022-08-16T00:00:18;17.10;99.90
21823;DHT22;11074;48.596;9.238;2022-08-16T00:02:47;17.20;99.90
21823;DHT22;11074;48.596;9.238;2022-08-16T00:05:14;17.20;99.90
21823;DHT22;11074;48.596;9.238;2022-08-16T00:07:40;17.20;99.90
21823;DHT22;11074;48.596;9.238;2022-08-16T00:10:09;17.00;99.90
21823;DHT22;11074;48.596;9.238;2022-08-16T00:12:37;16.80;99.90
21823;DHT22;11074;48.596;9.238;2022-08-16T00:15:12;16.90;99.90
21823;DHT22;11074;48.596;9.238;2022-08-16T00:17:41;17.00;99.90
21823;DHT22;11074;48.596;9.238;2022-08-16T00:20:08;16.80;99.90
21823;DHT22;11074;48.596;9.238;2022-08-16T00:22:36;16.90;99.90
21823;DHT22;11074;48.596;9.238;2022-08-16T00:25:05;16.90;99.90
21823;DHT22;11074;48.596;9.238;2022-08-16T00:27:34;17.00;99.90
21823;DHT22;11074;48.596;9.238;2022-08-16T00:30:00;17.00;99.90
21823;DHT22;11074;48.596;9.238;2022-08-16T00:32:26;16.80;99.90
21823;DHT22;11074;48.596;9.238;2022-08-16T00:34:52;16.80;99.90
21823;DHT22;11074;48.596;9.238;2022-08-16T00:37:19;16.70;99.90
21823;DHT22;11074;48.596;9.238;2022-08-16T00:39:47;16.70;99.90
21823;DHT22;11074;48.596;9.238;2022-08-16T00:42:13;16.60;99.90
21823;DHT22;11074;48.596;9.238;2022-08-16T00:44:45;16.60;99.90
21823;DHT22;11074;48.596;9.238;2022-08-16T00:47:17;16.50;99.90
21823;DHT22;11074;48.596;9.238;2022-08-16T00:49:44;16.60;99.90
21823;DHT22;11074;48.596;9.238;2022-08-16T00:52:09;16.60;99.90
21823;DHT22;11074;48.596;9.238;2022-08-16T00:54:36;16.70;99.90
21823;DHT22;11074;48.596;9.238;2022-08-16T00:57:02;16.60;99.90
21823;DHT22;11074;48.596;9.238;2022-08-16T00:59:32;16.60;99.90
21823;DHT22;11074;48.596;9.238;2022-08-16T01:02:02;16.70;99.90
21823;DHT22;11074;48.596;9.238;2022-08-16T01:04:30;16.80;99.90
21823;DHT22;11074;48.596;9.238;2022-08-16T01:07:01;16.60;99.90
21823;DHT22;11074;48.596;9.238;2022-08-16T01:09:35;16.50;99.90
21823;DHT22;11074;48.596;9.238;2022-08-16T01:12:05;16.50;99.90
21823;DHT22;11074;48.596;9.238;2022-08-16T01:14:40;16.60;99.90
21823;DHT22;11074;48.596;9.238;2022-08-16T01:17:11;16.70;99.90
21823;DHT22;11074;48.596;9.238;2022-08-16T01:19:43;16.70;99.90
21823;DHT22;11074;48.596;9.238;2022-08-16T01:22:33;16.60;99.90
21823;DHT22;11074;48.596;9.238;2022-08-16T01:25:16;16.50;99.90
21823;DHT22;11074;48.596;9.238;2022-08-16T01:27:52;16.60;99.90
21823;DHT22;11074;48.596;9.238;2022-08-16T01:30:25;16.60;99.90
21823;DHT22;11074;48.596;9.238;2022-08-16T01:33:05;16.60;99.90
21823;DHT22;11074;48.596;9.238;2022-08-16T01:35:38;16.60;99.90
21823;DHT22;11074;48.596;9.238;2022-08-16T01:40:51;16.60;99.90
21823;DHT22;11074;48.596;9.238;2022-08-16T01:43:20;16.60;99.90
21823;DHT22;11074;48.596;9.238;2022-08-16T01:45:51;16.60;99.90
21823;DHT22;11074;48.596;9.238;2022-08-16T01:48:17;16.60;99.90
21823;DHT22;11074;48.596;9.238;2022-08-16T01:50:44;16.60;99.90
21823;DHT22;11074;48.596;9.238;2022-08-16T01:53:11;16.70;99.90
21823;DHT22;11074;48.596;9.238;2022-08-16T01:55:37;16.60;99.90
21823;DHT22;11074;48.596;9.238;2022-08-16T01:58:05;16.60;99.90
21823;DHT22;11074;48.596;9.238;2022-08-16T02:00:30;16.30;99.90
21823;DHT22;11074;48.596;9.238;2022-08-16T02:02:56;16.20;99.90
21823;DHT22;11074;48.596;9.238;2022-08-16T02:05:22;16.10;99.90
21823;DHT22;11074;48.596;9.238;2022-08-16T02:07:48;16.10;99.90
21823;DHT22;11074;48.596;9.238;2022-08-16T02:10:14;16.10;99.90
21823;DHT22;11074;48.596;9.238;2022-08-16T02:12:42;16.20;99.90
21823;DHT22;11074;48.596;9.238;2022-08-16T02:15:09;16.10;99.90
21823;DHT22;11074;48.596;9.238;2022-08-16T02:17:35;16.10;99.90
21823;DHT22;11074;48.596;9.238;2022-08-16T02:20:02;16.00;99.90
21823;DHT22;11074;48.596;9.238;2022-08-16T02:22:29;16.00;99.90
21823;DHT22;11074;48.596;9.238;2022-08-16T02:24:55;16.20;99.90
21823;DHT22;11074;48.596;9.238;2022-08-16T02:27:20;16.20;99.90
21823;DHT22;11074;48.596;9.238;2022-08-16T02:29:46;16.30;99.90
21823;DHT22;11074;48.596;9.238;2022-08-16T02:32:13;16.30;99.90
21823;DHT22;11074;48.596;9.238;2022-08-16T02:34:41;16.30;99.90
21823;DHT22;11074;48.596;9.238;2022-08-16T02:37:07;16.30;99.90
21823;DHT22;11074;48.596;9.238;2022-08-16T02:39:33;16.20;99.90
21823;DHT22;11074;48.596;9.238;2022-08-16T02:41:58;16.00;99.90
21823;DHT22;11074;48.596;9.238;2022-08-16T02:44:24;16.00;99.90
21823;DHT22;11074;48.596;9.238;2022-08-16T02:46:50;16.10;99.90
21823;DHT22;11074;48.596;9.238;2022-08-16T02:49:16;16.00;99.90
21823;DHT22;11074;48.596;9.238;2022-08-16T02:51:42;16.10;99.90
21823;DHT22;11074;48.596;9.238;2022-08-16T02:54:09;16.20;99.90
21823;DHT22;11074;48.596;9.238;2022-08-16T02:56:38;16.20;99.90
21823;DHT22;11074;48.596;9.238;2022-08-16T02:59:04;16.20;99.90
21823;DHT22;11074;48.596;9.238;2022-08-16T03:01:31;16.20;99.90
21823;DHT22;11074;48.596;9.238;2022-08-16T03:03:58;16.10;99.90
21823;DHT22;11074;48.596;9.238;2022-08-16T03:06:27;16.10;99.90
21823;DHT22;11074;48.596;9.238;2022-08-16T03:08:53;15.90;99.90
21823;DHT22;11074;48.596;9.238;2022-08-16T03:11:18;15.80;99.90
21823;DHT22;11074;48.596;9.238;2022-08-16T03:13:46;15.60;99.90
21823;DHT22;11074;48.596;9.238;2022-08-16T03:16:15;15.60;99.90
21823;DHT22;11074;48.596;9.238;2022-08-16T03:18:41;15.50;99.90
21823;DHT22;11074;48.596;9.238;2022-08-16T03:21:07;15.40;99.90
21823;DHT22;11074;48.596;9.238;2022-08-16T03:23:34;15.40;99.90
21823;DHT22;11074;48.596;9.238;2022-08-16T03:26:00;15.40;99.90
21823;DHT22;11074;48.596;9.238;2022-08-16T03:28:26;15.30;99.90
21823;DHT22;11074;48.596;9.238;2022-08-16T03:30:52;15.30;99.90
21823;DHT22;11074;48.596;9.238;2022-08-16T03:33:17;15.30;99.90
21823;DHT22;11074;48.596;9.238;2022-08-16T03:35:44;15.40;99.90
21823;DHT22;11074;48.596;9.238;2022-08-16T03:38:13;15.50;99.90
21823;DHT22;11074;48.596;9.238;2022-08-16T03:40:41;15.50;99.90
21823;DHT22;11074;48.596;9.238;2022-08-16T03:43:10;15.50;99.90
21823;DHT22;11074;48.596;9.238;2022-08-16T03:45:38;15.60;99.90
21823;DHT22;11074;48.596;9.238;2022-08-16T03:48:06;15.60;99.90
21823;DHT22;11074;48.596;9.238;2022-08-16T03:50:32;15.60;99.90
21823;DHT22;11074;48.596;9.238;2022-08-16T03:53:00;15.50;99.90
21823;DHT22;11074;48.596;9.238;2022-08-16T03:55:26;15.40;99.90
21823;DHT22;11074;48.596;9.238;2022-08-16T03:57:52;15.40;99.90
21823;DHT22;11074;48.596;9.238;2022-08-16T04:00:27;15.40;99.90
21823;DHT22;11074;48.596;9.238;2022-08-16T04:02:56;15.30;99.90
21823;DHT22;11074;48.596;9.238;2022-08-16T04:05:26;15.40;99.90
21823;DHT22;11074;48.596;9.238;2022-08-16T04:07:52;15.30;99.90
21823;DHT22;11074;48.596;9.238;2022-08-16T04:10:18;15.30;99.90
21823;DHT22;11074;48.596;9.238;2022-08-16T04:12:44;15.30;99.90
21823;DHT22;11074;48.596;9.238;2022-08-16T04:15:12;15.30;99.90
21823;DHT22;11074;48.596;9.238;2022-08-16T04:17:42;15.20;99.90
21823;DHT22;11074;48.596;9.238;2022-08-16T04:20:10;15.20;99.90
21823;DHT22;11074;48.596;9.238;2022-08-16T04:22:38;15.20;99.90
21823;DHT22;11074;48.596;9.238;2022-08-16T04:25:05;15.20;99.90
21823;DHT22;11074;48.596;9.238;2022-08-16T04:27:31;15.20;99.90
21823;DHT22;11074;48.596;9.238;2022-08-16T04:29:58;15.20;99.90
21823;DHT22;11074;48.596;9.238;2022-08-16T04:32:25;15.20;99.90
21823;DHT22;11074;48.596;9.238;2022-08-16T04:34:51;15.30;99.90
21823;DHT22;11074;48.596;9.238;2022-08-16T04:37:16;15.30;99.90
21823;DHT22;11074;48.596;9.238;2022-08-16T04:39:42;15.30;99.90
21823;DHT22;11074;48.596;9.238;2022-08-16T04:42:08;15.40;99.90
21823;DHT22;11074;48.596;9.238;2022-08-16T04:44:33;15.50;99.90
21823;DHT22;11074;48.596;9.238;2022-08-16T04:46:59;15.50;99.90
21823;DHT22;11074;48.596;9.238;2022-08-16T04:49:25;15.50;99.90
21823;DHT22;11074;48.596;9.238;2022-08-16T04:51:51;15.60;99.90
21823;DHT22;11074;48.596;9.238;2022-08-16T04:54:17;15.70;99.90
21823;DHT22;11074;48.596;9.238;2022-08-16T04:56:43;15.80;99.90
21823;DHT22;11074;48.596;9.238;2022-08-16T04:59:09;15.90;99.90
21823;DHT22;11074;48.596;9.238;2022-08-16T05:01:36;16.00;99.90
21823;DHT22;11074;48.596;9.238;2022-08-16T05:04:03;16.00;99.90
21823;DHT22;11074;48.596;9.238;2022-08-16T05:06:29;16.10;99.90
21823;DHT22;11074;48.596;9.238;2022-08-16T05:08:55;16.10;99.90
21823;DHT22;11074;48.596;9.238;2022-08-16T05:11:22;16.10;99.90
21823;DHT22;11074;48.596;9.238;2022-08-16T05:13:50;16.20;99.90
21823;DHT22;11074;48.596;9.238;2022-08-16T05:16:20;16.30;99.90
21823;DHT22;11074;48.596;9.238;2022-08-16T05:18:50;16.30;99.90
21823;DHT22;11074;48.596;9.238;2022-08-16T05:21:18;16.20;99.90
21823;DHT22;11074;48.596;9.238;2022-08-16T05:23:44;16.20;99.90
21823;DHT22;11074;48.596;9.238;2022-08-16T05:26:10;16.20;99.90
21823;DHT22;11074;48.596;9.238;2022-08-16T05:28:36;16.30;99.90
21823;DHT22;11074;48.596;9.238;2022-08-16T05:31:02;16.30;99.90
21823;DHT22;11074;48.596;9.238;2022-08-16T05:33:27;16.30;99.90
21823;DHT22;11074;48.596;9.238;2022-08-16T05:35:53;16.30;99.90
21823;DHT22;11074;48.596;9.238;2022-08-16T05:38:19;16.30;99.90
21823;DHT22;11074;48.596;9.238;2022-08-16T05:40:58;16.30;99.90
21823;DHT22;11074;48.596;9.238;2022-08-16T05:43:25;16.30;99.90
21823;DHT22;11074;48.596;9.238;2022-08-16T05:45:52;16.40;99.90
21823;DHT22;11074;48.596;9.238;2022-08-16T05:48:19;16.50;99.90
21823;DHT22;11074;48.596;9.238;2022-08-16T05:50:46;16.70;99.90
21823;DHT22;11074;48.596;9.238;2022-08-16T05:53:13;16.70;99.90
21823;DHT22;11074;48.596;9.238;2022-08-16T05:55:38;16.60;99.90
21823;DHT22;11074;48.596;9.238;2022-08-16T05:58:04;16.70;99.90
21823;DHT22;11074;48.596;9.238;2022-08-16T06:00:30;16.80;99.90
21823;DHT22;11074;48.596;9.238;2022-08-16T06:02:57;16.80;99.90
21823;DHT22;11074;48.596;9.238;2022-08-16T06:05:23;16.90;99.90
21823;DHT22;11074;48.596;9.238;2022-08-16T06:07:50;16.90;99.90
21823;DHT22;11074;48.596;9.238;2022-08-16T06:10:17;17.00;99.90
21823;DHT22;11074;48.596;9.238;2022-08-16T06:12:43;17.10;99.90
21823;DHT22;11074;48.596;9.238;2022-08-16T06:15:18;17.20;99.90
21823;DHT22;11074;48.596;9.238;2022-08-16T06:17:44;17.20;99.90
21823;DHT22;11074;48.596;9.238;2022-08-16T06:20:14;17.20;99.90
21823;DHT22;11074;48.596;9.238;2022-08-16T06:22:42;17.30;99.90
21823;DHT22;11074;48.596;9.238;2022-08-16T06:25:10;17.30;99.90
21823;DHT22;11074;48.596;9.238;2022-08-16T06:27:37;17.30;99.90
21823;DHT22;11074;48.596;9.238;2022-08-16T06:30:08;17.30;99.90
21823;DHT22;11074;48.596;9.238;2022-08-16T06:32:35;17.50;99.90
21823;DHT22;11074;48.596;9.238;2022-08-16T06:35:02;17.60;99.90
21823;DHT22;11074;48.596;9.238;2022-08-16T06:37:29;17.60;99.90
21823;DHT22;11074;48.596;9.238;2022-08-16T06:39:54;17.60;99.90
21823;DHT22;11074;48.596;9.238;2022-08-16T06:42:20;17.70;99.90
21823;DHT22;11074;48.596;9.238;2022-08-16T06:44:46;17.80;99.90
21823;DHT22;11074;48.596;9.238;2022-08-16T06:47:12;17.80;99.90
21823;DHT22;11074;48.596;9.238;2022-08-16T06:49:38;17.80;99.90
21823;DHT22;11074;48.596;9.238;2022-08-16T06:52:04;17.80;99.90
21823;DHT22;11074;48.596;9.238;2022-08-16T06:54:30;17.90;99.90
21823;DHT22;11074;48.596;9.238;2022-08-16T06:56:58;18.00;99.90
21823;DHT22;11074;48.596;9.238;2022-08-16T06:59:24;18.10;99.90
21823;DHT22;11074;48.596;9.238;2022-08-16T07:01:49;18.20;99.90
21823;DHT22;11074;48.596;9.238;2022-08-16T07:04:16;18.20;99.90
21823;DHT22;11074;48.596;9.238;2022-08-16T07:06:43;18.30;99.90
21823;DHT22;11074;48.596;9.238;2022-08-16T07:09:09;18.30;99.90
21823;DHT22;11074;48.596;9.238;2022-08-16T07:11:36;18.40;99.90
21823;DHT22;11074;48.596;9.238;2022-08-16T07:14:02;18.60;99.90
21823;DHT22;11074;48.596;9.238;2022-08-16T07:16:28;18.70;99.90
21823;DHT22;11074;48.596;9.238;2022-08-16T07:18:53;18.80;99.90
21823;DHT22;11074;48.596;9.238;2022-08-16T07:21:22;18.80;99.90
21823;DHT22;11074;48.596;9.238;2022-08-16T07:23:48;18.90;99.90
21823;DHT22;11074;48.596;9.238;2022-08-16T07:26:19;19.00;99.90
21823;DHT22;11074;48.596;9.238;2022-08-16T07:28:47;19.10;99.90
21823;DHT22;11074;48.596;9.238;2022-08-16T07:31:14;19.10;99.90
21823;DHT22;11074;48.596;9.238;2022-08-16T07:33:40;19.20;99.90
21823;DHT22;11074;48.596;9.238;2022-08-16T07:36:08;19.30;99.90
21823;DHT22;11074;48.596;9.238;2022-08-16T07:38:34;19.30;99.90
21823;DHT22;11074;48.596;9.238;2022-08-16T07:41:00;19.40;99.90
21823;DHT22;11074;48.596;9.238;2022-08-16T07:43:26;19.50;99.90
21823;DHT22;11074;48.596;9.238;2022-08-16T07:45:53;19.60;99.90
21823;DHT22;11074;48.596;9.238;2022-08-16T07:48:19;19.70;99.90
21823;DHT22;11074;48.596;9.238;2022-08-16T07:50:45;19.90;99.90
21823;DHT22;11074;48.596;9.238;2022-08-16T07:53:13;19.90;99.90
21823;DHT22;11074;48.596;9.238;2022-08-16T07:55:40;20.00;99.90
21823;DHT22;11074;48.596;9.238;2022-08-16T07:58:06;20.10;99.90
21823;DHT22;11074;48.596;9.238;2022-08-16T08:00:33;20.20;99.90
21823;DHT22;11074;48.596;9.238;2022-08-16T08:03:00;20.20;99.90
21823;DHT22;11074;48.596;9.238;2022-08-16T08:05:26;20.30;99.90
21823;DHT22;11074;48.596;9.238;2022-08-16T08:07:53;20.40;99.90
21823;DHT22;11074;48.596;9.238;2022-08-16T08:10:21;20.50;99.90
21823;DHT22;11074;48.596;9.238;2022-08-16T08:12:50;20.50;99.90
21823;DHT22;11074;48.596;9.238;2022-08-16T08:15:17;20.60;99.90
21823;DHT22;11074;48.596;9.238;2022-08-16T08:17:44;20.60;99.90
21823;DHT22;11074;48.596;9.238;2022-08-16T08:20:12;20.70;99.90
21823;DHT22;11074;48.596;9.238;2022-08-16T08:22:41;20.80;99.90
21823;DHT22;11074;48.596;9.238;2022-08-16T08:25:11;20.80;99.90
21823;DHT22;11074;48.596;9.238;2022-08-16T08:27:38;20.90;99.90
21823;DHT22;11074;48.596;9.238;2022-08-16T08:30:05;21.00;99.90
21823;DHT22;11074;48.596;9.238;2022-08-16T08:32:31;21.00;99.90
21823;DHT22;11074;48.596;9.238;2022-08-16T08:34:57;21.10;99.90
21823;DHT22;11074;48.596;9.238;2022-08-16T08:37:25;21.10;99.90
21823;DHT22;11074;48.596;9.238;2022-08-16T08:39:52;21.20;99.90
21823;DHT22;11074;48.596;9.238;2022-08-16T08:42:19;21.30;99.90
21823;DHT22;11074;48.596;9.238;2022-08-16T08:44:45;21.40;99.90
21823;DHT22;11074;48.596;9.238;2022-08-16T08:47:11;21.40;99.90
21823;DHT22;11074;48.596;9.238;2022-08-16T08:49:37;21.50;99.90
21823;DHT22;11074;48.596;9.238;2022-08-16T08:52:03;21.60;99.90
21823;DHT22;11074;48.596;9.238;2022-08-16T08:54:29;21.70;99.90
21823;DHT22;11074;48.596;9.238;2022-08-16T08:56:57;21.70;99.90
21823;DHT22;11074;48.596;9.238;2022-08-16T08:59:23;21.80;99.90
21823;DHT22;11074;48.596;9.238;2022-08-16T09:01:50;21.90;99.90
21823;DHT22;11074;48.596;9.238;2022-08-16T09:04:16;22.00;99.90
21823;DHT22;11074;48.596;9.238;2022-08-16T09:06:42;22.10;99.90
21823;DHT22;11074;48.596;9.238;2022-08-16T09:09:08;22.10;99.90
21823;DHT22;11074;48.596;9.238;2022-08-16T09:11:35;22.20;99.90
21823;DHT22;11074;48.596;9.238;2022-08-16T09:14:02;22.10;99.90
21823;DHT22;11074;48.596;9.238;2022-08-16T09:16:28;22.10;99.90
21823;DHT22;11074;48.596;9.238;2022-08-16T09:18:54;22.10;99.90
21823;DHT22;11074;48.596;9.238;2022-08-16T09:21:20;22.10;99.90
21823;DHT22;11074;48.596;9.238;2022-08-16T09:23:47;22.20;99.90
21823;DHT22;11074;48.596;9.238;2022-08-16T09:26:13;22.30;99.90
21823;DHT22;11074;48.596;9.238;2022-08-16T09:28:43;22.30;99.90
21823;DHT22;11074;48.596;9.238;2022-08-16T09:31:10;22.40;99.90
21823;DHT22;11074;48.596;9.238;2022-08-16T09:33:38;22.60;99.90
21823;DHT22;11074;48.596;9.238;2022-08-16T09:36:04;22.70;99.90
21823;DHT22;11074;48.596;9.238;2022-08-16T09:38:31;22.70;99.90
21823;DHT22;11074;48.596;9.238;2022-08-16T09:41:03;22.70;99.90
21823;DHT22;11074;48.596;9.238;2022-08-16T09:43:33;22.70;99.90
21823;DHT22;11074;48.596;9.238;2022-08-16T09:46:00;22.80;99.90
21823;DHT22;11074;48.596;9.238;2022-08-16T09:48:27;23.00;99.90
21823;DHT22;11074;48.596;9.238;2022-08-16T09:50:53;23.00;99.90
21823;DHT22;11074;48.596;9.238;2022-08-16T09:53:20;23.10;99.90
21823;DHT22;11074;48.596;9.238;2022-08-16T09:55:49;23.20;99.90
21823;DHT22;11074;48.596;9.238;2022-08-16T09:58:24;23.30;99.90
21823;DHT22;11074;48.596;9.238;2022-08-16T10:00:52;23.30;99.90
21823;DHT22;11074;48.596;9.238;2022-08-16T10:03:19;23.40;99.90
21823;DHT22;11074;48.596;9.238;2022-08-16T10:05:45;23.30;99.90
21823;DHT22;11074;48.596;9.238;2022-08-16T10:08:11;23.30;99.90
21823;DHT22;11074;48.596;9.238;2022-08-16T10:10:38;23.20;99.90
21823;DHT22;11074;48.596;9.238;2022-08-16T10:13:28;23.20;99.90
21823;DHT22;11074;48.596;9.238;2022-08-16T10:15:54;23.10;99.90
21823;DHT22;11074;48.596;9.238;2022-08-16T10:18:27;23.10;99.90
21823;DHT22;11074;48.596;9.238;2022-08-16T10:20:55;23.10;99.90
21823;DHT22;11074;48.596;9.238;2022-08-16T10:23:23;23.20;99.90
21823;DHT22;11074;48.596;9.238;2022-08-16T10:25:49;23.20;99.90
21823;DHT22;11074;48.596;9.238;2022-08-16T10:28:15;23.20;99.90
21823;DHT22;11074;48.596;9.238;2022-08-16T10:30:41;23.30;99.90
21823;DHT22;11074;48.596;9.238;2022-08-16T10:33:10;23.40;99.90
21823;DHT22;11074;48.596;9.238;2022-08-16T10:35:36;23.60;99.90
21823;DHT22;11074;48.596;9.238;2022-08-16T10:38:02;23.70;99.90
21823;DHT22;11074;48.596;9.238;2022-08-16T10:40:28;23.90;99.90
21823;DHT22;11074;48.596;9.238;2022-08-16T10:42:55;24.00;99.90
21823;DHT22;11074;48.596;9.238;2022-08-16T10:45:24;23.90;99.90
21823;DHT22;11074;48.596;9.238;2022-08-16T10:47:52;23.90;99.90
21823;DHT22;11074;48.596;9.238;2022-08-16T10:50:18;23.80;99.90
21823;DHT22;11074;48.596;9.238;2022-08-16T10:52:44;23.90;99.90
21823;DHT22;11074;48.596;9.238;2022-08-16T10:55:11;24.10;99.90
21823;DHT22;11074;48.596;9.238;2022-08-16T10:57:37;24.20;99.90
21823;DHT22;11074;48.596;9.238;2022-08-16T11:00:09;24.20;99.90
21823;DHT22;11074;48.596;9.238;2022-08-16T11:02:39;24.20;99.90
21823;DHT22;11074;48.596;9.238;2022-08-16T11:05:08;24.30;99.90
21823;DHT22;11074;48.596;9.238;2022-08-16T11:07:43;24.30;99.90
21823;DHT22;11074;48.596;9.238;2022-08-16T11:10:15;24.30;99.90
21823;DHT22;11074;48.596;9.238;2022-08-16T11:12:42;24.30;99.90
21823;DHT22;11074;48.596;9.238;2022-08-16T11:15:08;24.40;99.90
21823;DHT22;11074;48.596;9.238;2022-08-16T11:17:35;24.50;99.90
21823;DHT22;11074;48.596;9.238;2022-08-16T11:20:03;24.40;99.90
21823;DHT22;11074;48.596;9.238;2022-08-16T11:22:29;24.50;99.90
21823;DHT22;11074;48.596;9.238;2022-08-16T11:24:55;24.60;99.90
21823;DHT22;11074;48.596;9.238;2022-08-16T11:27:21;24.70;99.90
21823;DHT22;11074;48.596;9.238;2022-08-16T11:29:52;24.80;99.90
21823;DHT22;11074;48.596;9.238;2022-08-16T11:32:20;24.80;99.90
21823;DHT22;11074;48.596;9.238;2022-08-16T11:34:47;24.80;99.90
21823;DHT22;11074;48.596;9.238;2022-08-16T11:37:13;24.70;99.90
21823;DHT22;11074;48.596;9.238;2022-08-16T11:39:39;24.70;99.90
21823;DHT22;11074;48.596;9.238;2022-08-16T11:42:04;24.70;99.90
21823;DHT22;11074;48.596;9.238;2022-08-16T11:44:30;25.00;99.90
21823;DHT22;11074;48.596;9.238;2022-08-16T11:46:56;25.20;99.90
21823;DHT22;11074;48.596;9.238;2022-08-16T11:49:21;25.70;99.90
21823;DHT22;11074;48.596;9.238;2022-08-16T11:51:47;25.90;99.90
21823;DHT22;11074;48.596;9.238;2022-08-16T11:54:14;25.90;99.90
21823;DHT22;11074;48.596;9.238;2022-08-16T11:56:40;26.00;99.90
21823;DHT22;11074;48.596;9.238;2022-08-16T11:59:05;26.00;99.90
21823;DHT22;11074;48.596;9.238;2022-08-16T12:01:31;26.00;99.90
21823;DHT22;11074;48.596;9.238;2022-08-16T12:03:58;25.80;99.90
21823;DHT22;11074;48.596;9.238;2022-08-16T12:06:23;25.70;99.90
21823;DHT22;11074;48.596;9.238;2022-08-16T12:08:50;25.90;99.90
21823;DHT22;11074;48.596;9.238;2022-08-16T12:11:17;26.10;99.90
21823;DHT22;11074;48.596;9.238;2022-08-16T12:13:43;26.10;99.90
21823;DHT22;11074;48.596;9.238;2022-08-16T12:16:10;26.10;99.90
21823;DHT22;11074;48.596;9.238;2022-08-16T12:18:36;26.30;99.90
21823;DHT22;11074;48.596;9.238;2022-08-16T12:21:04;26.50;99.90
21823;DHT22;11074;48.596;9.238;2022-08-16T12:23:31;26.80;99.90
21823;DHT22;11074;48.596;9.238;2022-08-16T12:25:57;26.90;99.90
21823;DHT22;11074;48.596;9.238;2022-08-16T12:28:23;26.80;99.90
21823;DHT22;11074;48.596;9.238;2022-08-16T12:30:49;26.90;99.90
21823;DHT22;11074;48.596;9.238;2022-08-16T12:33:17;27.00;99.90
21823;DHT22;11074;48.596;9.238;2022-08-16T12:35:45;26.70;99.90
21823;DHT22;11074;48.596;9.238;2022-08-16T12:38:13;26.60;99.90
21823;DHT22;11074;48.596;9.238;2022-08-16T12:40:42;26.70;99.90
21823;DHT22;11074;48.596;9.238;2022-08-16T12:43:12;27.00;99.90
21823;DHT22;11074;48.596;9.238;2022-08-16T12:45:44;27.20;99.90
21823;DHT22;11074;48.596;9.238;2022-08-16T12:48:14;27.50;99.90
21823;DHT22;11074;48.596;9.238;2022-08-16T12:51:06;27.60;99.90
21823;DHT22;11074;48.596;9.238;2022-08-16T12:53:34;27.70;99.90
21823;DHT22;11074;48.596;9.238;2022-08-16T12:56:01;27.60;99.90
21823;DHT22;11074;48.596;9.238;2022-08-16T12:58:28;27.40;99.90
21823;DHT22;11074;48.596;9.238;2022-08-16T13:00:55;27.20;99.90
21823;DHT22;11074;48.596;9.238;2022-08-16T13:03:21;27.00;99.90
21823;DHT22;11074;48.596;9.238;2022-08-16T13:05:47;26.80;99.90
21823;DHT22;11074;48.596;9.238;2022-08-16T13:08:17;26.80;99.90
21823;DHT22;11074;48.596;9.238;2022-08-16T13:10:47;26.90;99.90
21823;DHT22;11074;48.596;9.238;2022-08-16T13:13:16;26.90;99.90
21823;DHT22;11074;48.596;9.238;2022-08-16T13:15:55;27.00;99.90
21823;DHT22;11074;48.596;9.238;2022-08-16T13:18:25;27.20;99.90
21823;DHT22;11074;48.596;9.238;2022-08-16T13:20:53;27.40;99.90
21823;DHT22;11074;48.596;9.238;2022-08-16T13:23:21;27.60;99.90
21823;DHT22;11074;48.596;9.238;2022-08-16T13:25:48;27.80;99.90
21823;DHT22;11074;48.596;9.238;2022-08-16T13:28:16;27.70;99.90
21823;DHT22;11074;48.596;9.238;2022-08-16T13:30:49;27.80;99.90
21823;DHT22;11074;48.596;9.238;2022-08-16T13:33:21;27.90;99.90
21823;DHT22;11074;48.596;9.238;2022-08-16T13:35:57;28.00;99.90
21823;DHT22;11074;48.596;9.238;2022-08-16T13:38:24;28.10;99.90
21823;DHT22;11074;48.596;9.238;2022-08-16T13:40:51;28.20;99.90
21823;DHT22;11074;48.596;9.238;2022-08-16T13:43:21;28.30;99.90
21823;DHT22;11074;48.596;9.238;2022-08-16T13:45:49;28.40;99.90
21823;DHT22;11074;48.596;9.238;2022-08-16T13:48:15;28.40;99.90
21823;DHT22;11074;48.596;9.238;2022-08-16T13:50:41;28.40;99.90
21823;DHT22;11074;48.596;9.238;2022-08-16T13:53:07;28.40;99.90
21823;DHT22;11074;48.596;9.238;2022-08-16T13:55:33;28.40;99.90
21823;DHT22;11074;48.596;9.238;2022-08-16T13:57:58;28.50;99.90
21823;DHT22;11074;48.596;9.238;2022-08-16T14:00:24;28.30;99.90
21823;DHT22;11074;48.596;9.238;2022-08-16T14:02:51;28.40;99.90
21823;DHT22;11074;48.596;9.238;2022-08-16T14:05:17;28.50;99.90
21823;DHT22;11074;48.596;9.238;2022-08-16T14:07:43;28.60;99.90
21823;DHT22;11074;48.596;9.238;2022-08-16T14:10:10;28.60;99.90
21823;DHT22;11074;48.596;9.238;2022-08-16T14:12:38;28.60;99.90
21823;DHT22;11074;48.596;9.238;2022-08-16T14:15:07;28.60;99.90
21823;DHT22;11074;48.596;9.238;2022-08-16T14:17:36;28.60;99.90
21823;DHT22;11074;48.596;9.238;2022-08-16T14:20:04;28.80;99.90
21823;DHT22;11074;48.596;9.238;2022-08-16T14:22:33;28.50;99.90
21823;DHT22;11074;48.596;9.238;2022-08-16T14:25:05;28.20;99.90
21823;DHT22;11074;48.596;9.238;2022-08-16T14:27:34;28.20;99.90
21823;DHT22;11074;48.596;9.238;2022-08-16T14:30:00;28.20;99.90
21823;DHT22;11074;48.596;9.238;2022-08-16T14:32:28;28.40;99.90
21823;DHT22;11074;48.596;9.238;2022-08-16T14:34:56;28.50;99.90
21823;DHT22;11074;48.596;9.238;2022-08-16T14:37:23;28.60;99.90
21823;DHT22;11074;48.596;9.238;2022-08-16T14:39:50;28.70;99.90
21823;DHT22;11074;48.596;9.238;2022-08-16T14:42:24;28.90;99.90
21823;DHT22;11074;48.596;9.238;2022-08-16T14:44:51;28.90;99.90
21823;DHT22;11074;48.596;9.238;2022-08-16T14:47:17;29.00;99.90
21823;DHT22;11074;48.596;9.238;2022-08-16T14:49:44;29.10;99.90
21823;DHT22;11074;48.596;9.238;2022-08-16T14:52:13;28.90;99.90
21823;DHT22;11074;48.596;9.238;2022-08-16T14:54:43;28.80;99.90
21823;DHT22;11074;48.596;9.238;2022-08-16T14:57:10;28.80;99.90
21823;DHT22;11074;48.596;9.238;2022-08-16T14:59:37;29.10;99.90
21823;DHT22;11074;48.596;9.238;2022-08-16T15:02:10;29.20;99.90
21823;DHT22;11074;48.596;9.238;2022-08-16T15:04:40;29.20;99.90
21823;DHT22;11074;48.596;9.238;2022-08-16T15:07:07;29.20;99.90
21823;DHT22;11074;48.596;9.238;2022-08-16T15:09:34;29.20;99.90
21823;DHT22;11074;48.596;9.238;2022-08-16T15:12:12;29.10;99.90
21823;DHT22;11074;48.596;9.238;2022-08-16T15:14:43;29.40;99.90
21823;DHT22;11074;48.596;9.238;2022-08-16T15:17:12;30.50;99.90
21823;DHT22;11074;48.596;9.238;2022-08-16T15:19:40;31.00;99.90
21823;DHT22;11074;48.596;9.238;2022-08-16T15:22:19;30.70;99.90
21823;DHT22;11074;48.596;9.238;2022-08-16T15:24:48;30.40;99.90
21823;DHT22;11074;48.596;9.238;2022-08-16T15:27:14;30.10;99.90
21823;DHT22;11074;48.596;9.238;2022-08-16T15:29:40;29.90;99.60
21823;DHT22;11074;48.596;9.238;2022-08-16T15:32:06;29.80;99.90
21823;DHT22;11074;48.596;9.238;2022-08-16T15:34:32;29.70;99.50